Alpha Friendship — SVAV9 — position and weather

sailwx.info

Track history (hours):
 
Tides and Currents Weather Stations Pressure Air Temp Water Temp Dewpoint Dewpoint Depression Visibility Wind Speed Wind Dir Waves Ship Positions

Alpha Friendship

Last reported at 2014-Sep-16 12:25 UTC. Time now 2014-Dec-17 19:56 UTC.
Position N 28°59' E 122°54'.
Warning: this ship's position is months out of date.

Length 280 m; draft 8.7 m.

Type: Cargo ship. MMSI: 240965000.

Date/timePositionNaut miles runAvg speedWind from/ knotsBaromVisibWave heightAir tempDewpointWater temp
2014-Sep-16 12:25N 28°59' E 122°54'1211.1
2014-Sep-16 11:22N 29°08' E 122°45'1411.1
2014-Sep-16 10:05N 29°19' E 122°34'2 2.6
2014-Sep-16 09:20N 29°20' E 122°33'0 0.0
2014-Sep-16 08:32N 29°20' E 122°33'0 0.0
2014-Sep-16 07:20N 29°20' E 122°33'0 0.0
2014-Sep-16 06:20N 29°20' E 122°33'0 0.0
2014-Sep-16 04:32N 29°20' E 122°33'0 0.0
2014-Sep-16 01:32N 29°20' E 122°33'0 0.1
2014-Sep-16 00:08N 29°20' E 122°33'0 0.0
2014-Sep-15 23:20N 29°20' E 122°33'0 0.0
2014-Sep-15 22:14N 29°20' E 122°33'0 0.0
2014-Sep-15 20:08N 29°20' E 122°33'0 0.0
2014-Sep-15 19:14N 29°20' E 122°33'0 0.1
2014-Sep-15 17:20N 29°20' E 122°33'0 0.0
2014-Sep-15 16:32N 29°20' E 122°33'0 0.1
2014-Sep-15 15:26N 29°20' E 122°33'0 0.0
2014-Sep-15 14:32N 29°20' E 122°33'0 0.3
2014-Sep-15 13:33N 29°20' E 122°33'15 7.2
2014-Sep-15 11:29N 29°34' E 122°27'1111.8
2014-Sep-15 10:33N 29°43' E 122°20'1211.7
2014-Sep-15 09:33N 29°53' E 122°12'1 0.5
2014-Sep-15 07:23N 29°53' E 122°13'0 0.1
2014-Sep-15 06:05N 29°53' E 122°13'0 0.2
2014-Sep-15 05:33N 29°53' E 122°13'9 8.5
2014-Sep-15 04:33N 29°48' E 122°05'0 0.1
2014-Sep-15 00:08N 29°48' E 122°05'0 0.1
2014-Sep-14 19:32N 29°48' E 122°05'0 0.0
2014-Sep-14 18:14N 29°48' E 122°05'0 0.0
2014-Sep-14 17:08N 29°48' E 122°05'0 0.0
2014-Sep-14 16:26N 29°48' E 122°05'0 0.2
2014-Sep-14 15:14N 29°48' E 122°05'0 0.0
2014-Sep-14 12:32N 29°48' E 122°05'0 0.5
2014-Sep-14 11:34N 29°48' E 122°04'2 0.1
2014-Sep-13 13:18N 29°47' E 122°05'0 0.0
2014-Sep-13 03:12N 29°47' E 122°05'0 0.0
2014-Sep-13 00:12N 29°47' E 122°05'0 0.0
2014-Sep-12 23:24N 29°47' E 122°05'0 0.0
2014-Sep-12 22:30N 29°47' E 122°05'0 0.0
2014-Sep-12 21:06N 29°47' E 122°05'0 0.0
2014-Sep-12 20:06N 29°47' E 122°05'0 0.0
2014-Sep-12 16:24N 29°47' E 122°05'0 0.0
2014-Sep-12 15:30N 29°47' E 122°05'0 0.0
2014-Sep-12 14:30N 29°47' E 122°05'0 0.0
2014-Sep-12 07:18N 29°47' E 122°05'0 0.0
2014-Sep-12 05:06N 29°47' E 122°05'0 0.0
2014-Sep-12 03:30N 29°47' E 122°05'0 0.0
2014-Sep-12 01:06N 29°47' E 122°05'0 0.0
2014-Sep-11 22:12N 29°47' E 122°05'0 0.0
2014-Sep-11 21:12N 29°47' E 122°05'0 0.0
2014-Sep-11 17:06N 29°47' E 122°05'0 0.0
2014-Sep-11 15:06N 29°47' E 122°05'0 0.0
2014-Sep-11 12:12N 29°47' E 122°05'0 0.0
2014-Sep-11 10:24N 29°47' E 122°05'0 0.0
2014-Sep-11 07:18N 29°47' E 122°05'0 0.0
2014-Sep-11 04:18N 29°47' E 122°05'0 0.0
2014-Sep-11 02:12N 29°47' E 122°05'0 0.0
2014-Sep-10 23:24N 29°47' E 122°05'0 0.0
2014-Sep-10 22:30N 29°47' E 122°05'0 0.0
2014-Sep-10 21:30N 29°47' E 122°05'0 0.0
2014-Sep-10 20:18N 29°47' E 122°05'0 0.0
2014-Sep-10 17:24N 29°47' E 122°05'0 0.0
2014-Sep-10 13:06N 29°47' E 122°05'0 0.0
2014-Sep-10 11:18N 29°47' E 122°05'0 0.0
2014-Sep-10 10:30N 29°47' E 122°05'0 0.0
2014-Sep-10 06:30N 29°47' E 122°05'0 0.0
2014-Sep-10 03:12N 29°47' E 122°05'0 0.0
2014-Sep-09 23:18N 29°47' E 122°05'0 0.0
2014-Sep-09 21:18N 29°47' E 122°05'0 0.0
2014-Sep-09 20:18N 29°47' E 122°05'0 0.0
2014-Sep-09 18:24N 29°47' E 122°05'0 0.0
2014-Sep-09 17:18N 29°47' E 122°05'0 0.0
2014-Sep-09 16:06N 29°47' E 122°05'0 0.0
2014-Sep-09 13:18N 29°47' E 122°05'0 0.0
2014-Sep-09 10:18N 29°47' E 122°05'0 0.0
2014-Sep-09 07:30N 29°47' E 122°05'1 0.0
2014-Sep-07 09:32N 29°47' E 122°05'1 0.1
2014-Sep-07 00:23N 29°47' E 122°04'0 0.0
2014-Sep-06 23:11N 29°47' E 122°04'0 0.0
2014-Sep-06 20:23N 29°47' E 122°04'0 0.0
2014-Sep-06 19:05N 29°47' E 122°04'0 0.0
2014-Sep-06 18:29N 29°47' E 122°04'0 0.0
2014-Sep-06 14:11N 29°47' E 122°04'0 0.0
2014-Sep-06 13:11N 29°47' E 122°04'  
Track history (hours):
 
Tides and Currents Weather Stations Pressure Air Temp Water Temp Dewpoint Dewpoint Depression Visibility Wind Speed Wind Dir Waves Ship Positions

Alpha Friendship

Last reported at 2014-Sep-16 12:25 UTC. Time now 2014-Dec-17 19:56 UTC.
Position N 28°59' E 122°54'.
Warning: this ship's position is months out of date.

Length 280 m; draft 8.7 m.

Type: Cargo ship. MMSI: 240965000.

Date/timePositionNaut miles runAvg speedWind from/ knotsBaromVisibWave heightAir tempDewpointWater temp
2014-Sep-16 12:25N 28°59' E 122°54'1211.1
2014-Sep-16 11:22N 29°08' E 122°45'1411.1
2014-Sep-16 10:05N 29°19' E 122°34'2 2.6
2014-Sep-16 09:20N 29°20' E 122°33'0 0.0
2014-Sep-16 08:32N 29°20' E 122°33'0 0.0
2014-Sep-16 07:20N 29°20' E 122°33'0 0.0
2014-Sep-16 06:20N 29°20' E 122°33'0 0.0
2014-Sep-16 04:32N 29°20' E 122°33'0 0.0
2014-Sep-16 01:32N 29°20' E 122°33'0 0.1
2014-Sep-16 00:08N 29°20' E 122°33'0 0.0
2014-Sep-15 23:20N 29°20' E 122°33'0 0.0
2014-Sep-15 22:14N 29°20' E 122°33'0 0.0
2014-Sep-15 20:08N 29°20' E 122°33'0 0.0
2014-Sep-15 19:14N 29°20' E 122°33'0 0.1
2014-Sep-15 17:20N 29°20' E 122°33'0 0.0
2014-Sep-15 16:32N 29°20' E 122°33'0 0.1
2014-Sep-15 15:26N 29°20' E 122°33'0 0.0
2014-Sep-15 14:32N 29°20' E 122°33'0 0.3
2014-Sep-15 13:33N 29°20' E 122°33'15 7.2
2014-Sep-15 11:29N 29°34' E 122°27'1111.8
2014-Sep-15 10:33N 29°43' E 122°20'1211.7
2014-Sep-15 09:33N 29°53' E 122°12'1 0.5
2014-Sep-15 07:23N 29°53' E 122°13'0 0.1
2014-Sep-15 06:05N 29°53' E 122°13'0 0.2
2014-Sep-15 05:33N 29°53' E 122°13'9 8.5
2014-Sep-15 04:33N 29°48' E 122°05'0 0.1
2014-Sep-15 00:08N 29°48' E 122°05'0 0.1
2014-Sep-14 19:32N 29°48' E 122°05'0 0.0
2014-Sep-14 18:14N 29°48' E 122°05'0 0.0
2014-Sep-14 17:08N 29°48' E 122°05'0 0.0
2014-Sep-14 16:26N 29°48' E 122°05'0 0.2
2014-Sep-14 15:14N 29°48' E 122°05'0 0.0
2014-Sep-14 12:32N 29°48' E 122°05'0 0.5
2014-Sep-14 11:34N 29°48' E 122°04'2 0.1
2014-Sep-13 13:18N 29°47' E 122°05'0 0.0
2014-Sep-13 03:12N 29°47' E 122°05'0 0.0
2014-Sep-13 00:12N 29°47' E 122°05'0 0.0
2014-Sep-12 23:24N 29°47' E 122°05'0 0.0
2014-Sep-12 22:30N 29°47' E 122°05'0 0.0
2014-Sep-12 21:06N 29°47' E 122°05'0 0.0
2014-Sep-12 20:06N 29°47' E 122°05'0 0.0
2014-Sep-12 16:24N 29°47' E 122°05'0 0.0
2014-Sep-12 15:30N 29°47' E 122°05'0 0.0
2014-Sep-12 14:30N 29°47' E 122°05'0 0.0
2014-Sep-12 07:18N 29°47' E 122°05'0 0.0
2014-Sep-12 05:06N 29°47' E 122°05'0 0.0
2014-Sep-12 03:30N 29°47' E 122°05'0 0.0
2014-Sep-12 01:06N 29°47' E 122°05'0 0.0
2014-Sep-11 22:12N 29°47' E 122°05'0 0.0
2014-Sep-11 21:12N 29°47' E 122°05'0 0.0
2014-Sep-11 17:06N 29°47' E 122°05'0 0.0
2014-Sep-11 15:06N 29°47' E 122°05'0 0.0
2014-Sep-11 12:12N 29°47' E 122°05'0 0.0
2014-Sep-11 10:24N 29°47' E 122°05'0 0.0
2014-Sep-11 07:18N 29°47' E 122°05'0 0.0
2014-Sep-11 04:18N 29°47' E 122°05'0 0.0
2014-Sep-11 02:12N 29°47' E 122°05'0 0.0
2014-Sep-10 23:24N 29°47' E 122°05'0 0.0
2014-Sep-10 22:30N 29°47' E 122°05'0 0.0
2014-Sep-10 21:30N 29°47' E 122°05'0 0.0
2014-Sep-10 20:18N 29°47' E 122°05'0 0.0
2014-Sep-10 17:24N 29°47' E 122°05'0 0.0
2014-Sep-10 13:06N 29°47' E 122°05'0 0.0
2014-Sep-10 11:18N 29°47' E 122°05'0 0.0
2014-Sep-10 10:30N 29°47' E 122°05'0 0.0
2014-Sep-10 06:30N 29°47' E 122°05'0 0.0
2014-Sep-10 03:12N 29°47' E 122°05'0 0.0
2014-Sep-09 23:18N 29°47' E 122°05'0 0.0
2014-Sep-09 21:18N 29°47' E 122°05'0 0.0
2014-Sep-09 20:18N 29°47' E 122°05'0 0.0
2014-Sep-09 18:24N 29°47' E 122°05'0 0.0
2014-Sep-09 17:18N 29°47' E 122°05'0 0.0
2014-Sep-09 16:06N 29°47' E 122°05'0 0.0
2014-Sep-09 13:18N 29°47' E 122°05'0 0.0
2014-Sep-09 10:18N 29°47' E 122°05'0 0.0
2014-Sep-09 07:30N 29°47' E 122°05'1 0.0
2014-Sep-07 09:32N 29°47' E 122°05'1 0.1
2014-Sep-07 00:23N 29°47' E 122°04'0 0.0
2014-Sep-06 23:11N 29°47' E 122°04'0 0.0
2014-Sep-06 20:23N 29°47' E 122°04'0 0.0
2014-Sep-06 19:05N 29°47' E 122°04'0 0.0
2014-Sep-06 18:29N 29°47' E 122°04'0 0.0
2014-Sep-06 14:11N 29°47' E 122°04'0 0.0
2014-Sep-06 13:11N 29°47' E 122°04'  

Dump ship's entire track history